Pittsburg, New Hampshire
Current Conditions -  °F | °C
As of 9:32 PM on Saturday 22 Nov 2014 (Local Time) from CYSC Reporting Station
Light Snow Light Snow  
Wind Chill: 27°   Ceiling: 1700
Heat Index: 32°   Visibility: 5mi
Dew Point: 30°   Wind: 5mph
Humidity: 93%   Direction: 210°SSW
Pressure: 29.87"   Gusts: NA
Location:  45.05°N, 71.39°W
Report Text: CYSC 230232Z AUTO 21004KT 5SM -SN OVC017 M00/M01 A2987 RMK SLP126
Loading
Personal Weather Stations






























Interactive Weather Map New forecast layout! Learn more

10-Day Weather Forecast

Advertisements
Track Severe Weather on mobile